Eugene, OR (97404)

12:08 AM PST on December 20, 2014 (GMT -0800)
Santa Clara | Change Station
CLOSE
Current Station
Personal Weather Station
Location: Eugene, OR
Elevation: 406 ft
Nearby Weather Stations
Active Advisory: Areal Flood Watch

Elev 406 ft 44.11 °N, 123.15 °W | Updated 9 seconds ago

Rain
Rain
47.9 °F
Feels Like 48 °F
N
0.0
Wind Variable Wind from SE
Gusts 0.0 mph

Today
High -- | Low -- °F
--% Chance of Precip.
Yesterday
High -- | Low -- °F
Precip. -- in
7:43 AM 4:36 PM
Waning Crescent, 4% visible
Pressure 29.91 in
Visibility 9.0 miles
Clouds Few 3500 ft
Overcast 4500 ft
Windchill 48 °F
Dew Point 44 °F
Humidity 85%
Rainfall 0.00 in
Snow Depth Not available.
UV 0 out of 12
Pollen .50 out of 12
Air Quality Not available.
Flu Activity Not available.
METAR KEUG 200754Z AUTO 15009KT 9SM -RA FEW035 OVC045 09/07 A2991 RMK AO2 SLP129 P0005 T00890072 401220056

More Conditions Fewer Conditions

Pressure 29.91 in
Visibility 9.0 miles
Clouds Few 3500 ft
Overcast 4500 ft
Windchill 48 °F
Dew Point 44 °F
Humidity 85%
Rainfall 0.00 in
Snow Depth Not available.
UV 0 out of 12
Pollen .50 out of 12
Air Quality Not available.
Flu Activity Not available.
METAR KEUG 200754Z AUTO 15009KT 9SM -RA FEW035 OVC045 09/07 A2991 RMK AO2 SLP129 P0005 T00890072 401220056

More Conditions Fewer Conditions

10-Day Weather Forecast

Almanac

Astronomy

Dec. 20, 2014 Rise Set
Actual Time
Civil Twilight
Nautical Twilight
Astronomical Twilight
Moon
Length of Visible Light
Length of Day
Tomorrow will be .
, % of the Moon is Illuminated

Today's Extremes

State Highs State Lows

Community

WunderPhotos

Upload Photos

1,779,146 photos uploaded!

WunderBlogs® & News

Nearby

Air Quality

  Air Quality AQ Index Pollutant
Not available.

Snow Depth

Station Depth Elevation

Earthquake Activity

City Distance Mag. Time & Date
Minimum magnitude displayed is 2.5.

Coastal Water Temperatures

Place Temperature

Nearby Weather Stations